createdAt,value
2018-05-31T00:00:24.925Z,6.07
2018-05-31T00:02:52.431Z,6.07
2018-05-31T00:05:19.992Z,7.10
2018-05-31T00:07:48.314Z,6.00
2018-05-31T00:10:16.032Z,7.43
2018-05-31T00:12:44.102Z,7.03
2018-05-31T00:15:11.881Z,8.60
2018-05-31T00:17:40.148Z,6.97
2018-05-31T00:20:07.627Z,5.70
2018-05-31T00:22:35.230Z,7.33
2018-05-31T00:25:02.830Z,6.70
2018-05-31T00:27:32.448Z,8.30
2018-05-31T00:29:59.829Z,6.50
2018-05-31T00:32:27.224Z,6.53
2018-05-31T00:34:54.812Z,7.33
2018-05-31T00:37:22.366Z,7.03
2018-05-31T00:39:49.823Z,6.43
2018-05-31T00:42:17.192Z,7.50
2018-05-31T00:44:44.756Z,6.83
2018-05-31T00:47:12.299Z,6.90
2018-05-31T00:49:39.774Z,6.43
2018-05-31T00:52:07.214Z,5.90
2018-05-31T00:54:34.687Z,6.40
2018-05-31T00:57:02.107Z,8.37
2018-05-31T00:59:29.594Z,6.13
2018-05-31T01:01:56.982Z,6.87
2018-05-31T01:04:24.499Z,7.03
2018-05-31T01:06:52.472Z,6.37
2018-05-31T01:09:20.135Z,5.50
2018-05-31T01:11:47.623Z,5.73
2018-05-31T01:14:15.204Z,6.33
2018-05-31T01:16:42.727Z,6.07
2018-05-31T01:19:10.272Z,7.00
2018-05-31T01:21:37.759Z,12.00
2018-05-31T01:24:05.479Z,6.57
2018-05-31T01:26:34.869Z,5.93
2018-05-31T01:29:02.797Z,6.67
2018-05-31T01:31:30.222Z,6.53
2018-05-31T01:33:57.618Z,6.67
2018-05-31T01:36:25.146Z,6.27
2018-05-31T01:38:52.609Z,7.77
2018-05-31T01:41:20.037Z,6.23
2018-05-31T01:43:47.826Z,10.30
2018-05-31T01:46:15.283Z,6.67
2018-05-31T01:48:42.835Z,9.47
2018-05-31T01:51:10.806Z,6.60
2018-05-31T01:53:38.597Z,7.93
2018-05-31T01:56:06.027Z,7.37
2018-05-31T01:58:33.454Z,8.30
2018-05-31T02:01:00.942Z,9.07
2018-05-31T02:03:28.926Z,6.57
2018-05-31T02:05:56.711Z,8.30
2018-05-31T02:08:24.647Z,8.00
2018-05-31T02:10:52.309Z,6.53
2018-05-31T02:13:19.879Z,6.07
2018-05-31T02:15:47.659Z,6.90
2018-05-31T02:18:15.299Z,6.13
2018-05-31T02:20:42.860Z,6.07
2018-05-31T02:23:10.334Z,6.07
2018-05-31T02:25:37.730Z,7.13
2018-05-31T02:28:05.104Z,9.07
2018-05-31T02:30:33.212Z,10.93
2018-05-31T02:33:00.759Z,6.13
2018-05-31T02:35:28.255Z,6.57
2018-05-31T02:37:55.643Z,6.70
2018-05-31T02:40:23.147Z,9.00
2018-05-31T02:42:51.629Z,9.33
2018-05-31T02:45:19.174Z,7.60
2018-05-31T02:47:46.564Z,5.83
2018-05-31T02:50:14.088Z,6.97
2018-05-31T02:52:41.648Z,6.17
2018-05-31T02:55:09.106Z,6.33
2018-05-31T02:57:36.569Z,7.43
2018-05-31T03:00:04.236Z,6.57
2018-05-31T03:02:31.808Z,6.57
2018-05-31T03:04:59.243Z,6.53
2018-05-31T03:07:26.753Z,6.63
2018-05-31T03:09:54.179Z,5.80
2018-05-31T03:12:21.563Z,6.27
2018-05-31T03:14:48.973Z,6.33
2018-05-31T03:17:16.446Z,7.83
2018-05-31T03:19:43.846Z,6.73
2018-05-31T03:22:11.556Z,8.37
2018-05-31T03:24:39.121Z,8.47
2018-05-31T03:27:06.551Z,6.50
2018-05-31T03:29:34.233Z,7.03
2018-05-31T03:32:01.765Z,10.10
2018-05-31T03:34:29.246Z,6.60
2018-05-31T03:37:09.762Z,6.97
2018-05-31T03:39:39.171Z,6.33
2018-05-31T03:42:06.703Z,7.33
2018-05-31T03:44:34.128Z,11.23
2018-05-31T03:47:01.600Z,8.00
2018-05-31T03:49:29.022Z,7.63
2018-05-31T03:51:56.811Z,7.77
2018-05-31T03:54:24.704Z,6.80
2018-05-31T03:56:52.342Z,6.47
2018-05-31T03:59:19.904Z,7.00
2018-05-31T04:01:47.306Z,6.93
2018-05-31T04:04:15.019Z,9.87
2018-05-31T04:06:42.784Z,7.67
2018-05-31T04:09:10.253Z,8.33
2018-05-31T04:11:37.649Z,6.70
2018-05-31T04:14:05.169Z,6.40
2018-05-31T04:16:32.614Z,7.23
2018-05-31T04:19:01.403Z,7.03
2018-05-31T04:21:29.064Z,6.93
2018-05-31T04:23:56.525Z,7.37
2018-05-31T04:26:24.510Z,6.93
2018-05-31T04:28:52.476Z,6.83
2018-05-31T04:31:20.021Z,7.13
2018-05-31T04:33:47.792Z,6.60
2018-05-31T04:36:15.346Z,5.73
2018-05-31T04:38:42.808Z,6.37
2018-05-31T04:41:10.192Z,6.07
2018-05-31T04:43:37.558Z,6.07
2018-05-31T04:46:05.072Z,6.03
2018-05-31T04:48:32.833Z,6.43
2018-05-31T04:51:01.119Z,20.17
2018-05-31T04:53:28.674Z,23.17
2018-05-31T04:55:56.235Z,7.73
2018-05-31T04:58:24.007Z,7.00
2018-05-31T05:00:51.388Z,9.37
2018-05-31T05:03:18.916Z,6.73
2018-05-31T05:05:46.425Z,9.87
2018-05-31T05:08:13.958Z,7.43
2018-05-31T05:10:41.818Z,6.90
2018-05-31T05:13:09.281Z,8.43
2018-05-31T05:15:37.243Z,8.67
2018-05-31T05:18:05.093Z,10.63
2018-05-31T05:20:32.551Z,14.60
2018-05-31T05:23:01.029Z,16.73
2018-05-31T05:25:28.627Z,14.70
2018-05-31T05:27:56.381Z,17.07
2018-05-31T05:30:23.816Z,17.87
2018-05-31T05:32:55.744Z,8.10
2018-05-31T05:35:23.439Z,7.43
2018-05-31T05:37:58.864Z,6.60
2018-05-31T05:40:32.764Z,6.73
2018-05-31T05:43:01.584Z,7.83
2018-05-31T05:45:29.449Z,9.23
2018-05-31T05:47:56.921Z,7.70
2018-05-31T05:50:24.319Z,6.60
2018-05-31T05:52:51.849Z,6.27
2018-05-31T05:55:19.298Z,7.03
2018-05-31T05:57:46.750Z,6.80
2018-05-31T06:00:14.243Z,6.47
2018-05-31T06:02:41.868Z,6.60
2018-05-31T06:05:09.416Z,5.93
2018-05-31T06:07:36.975Z,6.17
2018-05-31T06:10:04.372Z,7.03
2018-05-31T06:12:31.777Z,5.73
2018-05-31T06:14:59.772Z,6.83
2018-05-31T06:17:27.318Z,5.90
2018-05-31T06:19:54.710Z,6.27
2018-05-31T06:22:22.186Z,5.00
2018-05-31T06:24:49.609Z,4.83
2018-05-31T06:27:17.161Z,5.23
2018-05-31T06:29:44.627Z,5.40
2018-05-31T06:32:12.020Z,5.90
2018-05-31T06:34:39.432Z,5.43
2018-05-31T06:37:07.418Z,5.27
2018-05-31T06:39:34.849Z,5.28
2018-05-31T06:42:02.726Z,5.23
2018-05-31T06:44:30.599Z,7.97
2018-05-31T06:46:58.352Z,5.05
2018-05-31T06:49:26.121Z,4.87
2018-05-31T06:51:54.040Z,4.70
2018-05-31T06:54:21.575Z,5.40
2018-05-31T06:56:49.099Z,4.82
2018-05-31T06:59:16.873Z,5.37
2018-05-31T07:01:44.846Z,5.30
2018-05-31T07:04:12.601Z,5.15
2018-05-31T07:06:40.461Z,6.57
2018-05-31T07:09:08.329Z,5.55
2018-05-31T07:11:36.199Z,7.25
2018-05-31T07:14:04.159Z,5.05
2018-05-31T07:16:31.930Z,4.68
2018-05-31T07:18:59.737Z,5.70
2018-05-31T07:21:27.159Z,5.40
2018-05-31T07:23:54.510Z,7.57
2018-05-31T07:26:22.082Z,5.37
2018-05-31T07:28:49.647Z,5.15
2018-05-31T07:31:17.197Z,4.57
2018-05-31T07:33:44.660Z,5.03
2018-05-31T07:36:12.151Z,5.55
2018-05-31T07:38:39.674Z,5.15
2018-05-31T07:41:07.323Z,5.05
2018-05-31T07:43:34.696Z,4.80
2018-05-31T07:46:02.054Z,5.10
2018-05-31T07:48:29.492Z,5.45
2018-05-31T07:50:57.269Z,5.03
2018-05-31T07:53:25.148Z,4.60
2018-05-31T07:55:52.591Z,5.12
2018-05-31T07:58:19.976Z,4.55
2018-05-31T08:00:47.440Z,4.50
2018-05-31T08:03:15.056Z,5.03
2018-05-31T08:05:43.140Z,5.78
2018-05-31T08:08:10.685Z,7.93
2018-05-31T08:13:12.183Z,5.20
2018-05-31T08:15:39.562Z,4.68
2018-05-31T08:18:06.931Z,4.95
2018-05-31T08:20:34.342Z,5.03
2018-05-31T08:23:01.723Z,5.07
2018-05-31T08:25:29.155Z,5.57
2018-05-31T08:27:57.128Z,5.25
2018-05-31T08:30:24.515Z,4.87
2018-05-31T08:32:52.021Z,5.03
2018-05-31T08:35:19.805Z,5.43
2018-05-31T08:37:47.346Z,5.37
2018-05-31T08:40:15.240Z,4.85
2018-05-31T08:42:42.775Z,4.78
2018-05-31T08:45:10.556Z,4.65
2018-05-31T08:47:37.996Z,4.40
2018-05-31T08:50:05.655Z,5.07
2018-05-31T08:52:33.399Z,4.80
2018-05-31T08:55:00.880Z,4.90
2018-05-31T08:57:28.749Z,6.07
2018-05-31T08:59:56.157Z,4.68
2018-05-31T09:02:23.517Z,4.68
2018-05-31T09:04:51.128Z,6.03
2018-05-31T09:07:19.122Z,5.47
2018-05-31T09:09:46.549Z,5.80
2018-05-31T09:12:14.423Z,5.40
2018-05-31T09:14:42.195Z,4.97
2018-05-31T09:17:09.646Z,4.53
2018-05-31T09:19:37.604Z,4.50
2018-05-31T09:22:05.582Z,4.40
2018-05-31T09:24:33.443Z,4.87
2018-05-31T09:27:01.413Z,4.68
2018-05-31T09:29:29.189Z,5.07
2018-05-31T09:31:57.128Z,5.07
2018-05-31T09:34:24.827Z,4.43
2018-05-31T09:36:52.200Z,4.82
2018-05-31T09:39:19.737Z,4.62
2018-05-31T09:41:47.183Z,4.90
2018-05-31T09:44:14.963Z,5.15
2018-05-31T09:46:42.411Z,4.45
2018-05-31T09:49:10.309Z,4.97
2018-05-31T09:51:37.725Z,5.20
2018-05-31T09:54:05.191Z,4.78
2018-05-31T09:56:32.549Z,5.05
2018-05-31T09:59:00.098Z,4.62
2018-05-31T10:01:28.067Z,7.70
2018-05-31T10:03:55.833Z,5.85
2018-05-31T10:06:23.586Z,4.45
2018-05-31T10:08:51.579Z,5.22
2018-05-31T10:11:19.461Z,4.85
2018-05-31T10:13:46.927Z,8.68
2018-05-31T10:16:14.358Z,5.40
2018-05-31T10:18:42.328Z,4.60
2018-05-31T10:21:10.389Z,4.32
2018-05-31T10:23:38.270Z,4.45
2018-05-31T10:26:05.744Z,5.18
2018-05-31T10:28:33.132Z,5.47
2018-05-31T10:31:00.541Z,6.57
2018-05-31T10:33:28.820Z,5.20
2018-05-31T10:35:56.174Z,5.93
2018-05-31T10:38:23.731Z,5.82
2018-05-31T10:40:51.503Z,6.05
2018-05-31T10:43:18.941Z,4.97
2018-05-31T10:45:46.808Z,5.43
2018-05-31T10:48:14.579Z,4.60
2018-05-31T10:50:42.339Z,5.05
2018-05-31T10:53:10.210Z,5.68
2018-05-31T10:55:38.174Z,5.12
2018-05-31T10:58:05.968Z,5.00
2018-05-31T11:00:33.715Z,5.70
2018-05-31T11:03:01.771Z,6.68
2018-05-31T11:05:29.232Z,5.20
2018-05-31T11:07:56.986Z,5.05
2018-05-31T11:10:24.354Z,5.50
2018-05-31T11:12:52.147Z,6.03
2018-05-31T11:15:20.394Z,5.62
2018-05-31T11:17:48.160Z,5.20
2018-05-31T11:20:16.051Z,4.97
2018-05-31T11:22:43.688Z,5.00
2018-05-31T11:25:11.555Z,5.22
2018-05-31T11:27:39.459Z,5.65
2018-05-31T11:30:07.098Z,5.72
2018-05-31T11:32:34.538Z,5.32
2018-05-31T11:35:01.909Z,5.60
2018-05-31T11:37:29.455Z,5.72
2018-05-31T11:39:57.401Z,6.12
2018-05-31T11:42:24.843Z,5.53
2018-05-31T11:44:52.341Z,5.90
2018-05-31T11:47:20.310Z,4.95
2018-05-31T11:49:48.194Z,6.20
2018-05-31T11:52:15.637Z,5.72
2018-05-31T11:54:43.401Z,5.30
2018-05-31T11:57:11.369Z,5.53
2018-05-31T11:59:39.586Z,5.22
2018-05-31T12:02:07.098Z,7.05
2018-05-31T12:04:34.556Z,6.28
2018-05-31T12:07:02.030Z,5.95
2018-05-31T12:09:29.991Z,5.43
2018-05-31T12:11:57.446Z,5.87
2018-05-31T12:14:25.319Z,5.03
2018-05-31T12:16:53.181Z,5.32
2018-05-31T12:19:21.069Z,5.47
2018-05-31T12:21:49.145Z,4.95
2018-05-31T12:24:17.008Z,4.80
2018-05-31T12:26:44.562Z,5.12
2018-05-31T12:29:11.916Z,5.20
2018-05-31T12:31:39.465Z,5.43
2018-05-31T12:34:06.917Z,4.93
2018-05-31T12:36:34.619Z,4.70
2018-05-31T12:39:02.060Z,5.55
2018-05-31T12:41:29.609Z,5.18
2018-05-31T12:43:57.568Z,5.75
2018-05-31T12:46:25.038Z,6.35
2018-05-31T12:48:52.859Z,4.85
2018-05-31T12:51:20.555Z,6.93
2018-05-31T12:53:48.360Z,5.93
2018-05-31T12:56:15.774Z,12.35
2018-05-31T12:58:43.154Z,8.82
2018-05-31T13:01:10.690Z,6.03
2018-05-31T13:03:38.658Z,6.72
2018-05-31T13:06:06.956Z,7.03
2018-05-31T13:08:35.111Z,8.57
2018-05-31T13:11:03.395Z,7.35
2018-05-31T13:13:30.817Z,9.40
2018-05-31T13:15:58.301Z,7.95
2018-05-31T13:18:26.378Z,7.60
2018-05-31T13:20:55.134Z,7.22
2018-05-31T13:23:22.789Z,8.45
2018-05-31T13:25:50.154Z,8.38
2018-05-31T13:28:17.855Z,7.65
2018-05-31T13:30:45.239Z,7.85
2018-05-31T13:33:12.664Z,6.80
2018-05-31T13:35:40.048Z,6.12
2018-05-31T13:38:07.672Z,6.60
2018-05-31T13:40:36.154Z,7.35
2018-05-31T13:43:04.047Z,8.38
2018-05-31T13:45:31.483Z,6.80
2018-05-31T13:47:59.343Z,7.68
2018-05-31T13:50:27.440Z,6.57
2018-05-31T13:52:54.917Z,7.68
2018-05-31T13:55:22.268Z,6.45
2018-05-31T13:57:49.640Z,8.93
2018-05-31T14:00:17.161Z,7.07
2018-05-31T14:02:44.531Z,7.80
2018-05-31T14:05:11.977Z,6.95
2018-05-31T14:07:39.411Z,7.47
2018-05-31T14:10:07.176Z,6.53
2018-05-31T14:12:34.538Z,6.15
2018-05-31T14:15:02.293Z,5.70
2018-05-31T14:17:30.064Z,7.12
2018-05-31T14:19:57.848Z,6.28
2018-05-31T14:22:25.282Z,6.62
2018-05-31T14:24:53.041Z,6.05
2018-05-31T14:27:20.549Z,5.70
2018-05-31T14:29:47.905Z,6.37
2018-05-31T14:32:15.286Z,11.00
2018-05-31T14:34:42.659Z,7.43
2018-05-31T14:37:10.022Z,5.80
2018-05-31T14:39:37.466Z,7.90
2018-05-31T14:42:05.251Z,6.32
2018-05-31T14:44:33.068Z,6.00
2018-05-31T14:47:00.446Z,5.65
2018-05-31T14:49:28.376Z,6.43
2018-05-31T14:51:55.757Z,6.90
2018-05-31T14:54:23.134Z,6.40
2018-05-31T14:56:50.566Z,6.97
2018-05-31T14:59:17.912Z,7.00
2018-05-31T15:01:45.272Z,5.47
2018-05-31T15:04:12.728Z,5.60
2018-05-31T15:06:40.067Z,6.30
2018-05-31T15:09:07.496Z,5.62
2018-05-31T15:11:35.247Z,6.03
2018-05-31T15:14:03.073Z,6.62
2018-05-31T15:16:30.453Z,5.95
2018-05-31T15:18:57.813Z,6.28
2018-05-31T15:21:25.657Z,6.20
2018-05-31T15:23:53.029Z,9.20
2018-05-31T15:26:20.431Z,6.72
2018-05-31T15:28:47.919Z,5.80
2018-05-31T15:31:15.296Z,6.18
2018-05-31T15:33:42.643Z,6.10
2018-05-31T15:36:10.056Z,6.18
2018-05-31T15:38:37.443Z,6.85
2018-05-31T15:41:05.232Z,8.43
2018-05-31T15:43:32.593Z,6.70
2018-05-31T15:45:59.954Z,6.22
2018-05-31T15:48:27.362Z,5.80
2018-05-31T15:50:54.766Z,5.60
2018-05-31T15:53:22.157Z,5.53
2018-05-31T15:55:49.793Z,6.32
2018-05-31T15:58:17.546Z,5.40
2018-05-31T16:00:44.931Z,5.40
2018-05-31T16:03:12.311Z,5.50
2018-05-31T16:05:39.700Z,5.90
2018-05-31T16:08:07.100Z,5.40
2018-05-31T16:10:34.524Z,5.10
2018-05-31T16:13:01.988Z,5.53
2018-05-31T16:15:29.769Z,5.90
2018-05-31T16:17:57.153Z,4.90
2018-05-31T16:20:24.524Z,4.75
2018-05-31T16:22:51.905Z,4.50
2018-05-31T16:25:19.257Z,6.82
2018-05-31T16:27:46.715Z,8.02
2018-05-31T16:30:14.090Z,5.20
2018-05-31T16:32:41.463Z,5.03
2018-05-31T16:35:08.974Z,4.93
2018-05-31T16:37:36.549Z,5.25
2018-05-31T16:40:03.996Z,5.37
2018-05-31T16:42:31.565Z,5.25
2018-05-31T16:44:58.946Z,5.22
2018-05-31T16:47:26.331Z,5.25
2018-05-31T16:49:53.725Z,5.43
2018-05-31T16:52:21.201Z,5.30
2018-05-31T16:54:48.548Z,5.65
2018-05-31T16:57:16.040Z,6.32
2018-05-31T16:59:43.479Z,5.68
2018-05-31T17:02:11.449Z,5.78
2018-05-31T17:04:39.456Z,6.87
2018-05-31T17:07:06.876Z,5.87
2018-05-31T17:09:34.861Z,5.87
2018-05-31T17:12:02.536Z,7.78
2018-05-31T17:14:29.990Z,6.40
2018-05-31T17:16:57.427Z,6.60
2018-05-31T17:19:25.503Z,8.38
2018-05-31T17:21:53.462Z,6.80
2018-05-31T17:24:21.431Z,7.32
2018-05-31T17:26:49.299Z,7.20
2018-05-31T17:29:17.071Z,7.87
2018-05-31T17:31:45.176Z,7.12
2018-05-31T17:34:12.904Z,7.30
2018-05-31T17:36:40.365Z,6.15
2018-05-31T17:39:07.783Z,5.70
2018-05-31T17:41:35.164Z,7.43
2018-05-31T17:44:03.043Z,6.62
2018-05-31T17:46:31.006Z,4.07
2018-05-31T17:48:58.871Z,4.95
2018-05-31T17:51:26.741Z,4.65
2018-05-31T17:53:54.225Z,5.18
2018-05-31T17:56:21.859Z,5.85
2018-05-31T17:58:50.688Z,5.50
2018-05-31T18:01:18.431Z,4.30
2018-05-31T18:03:45.974Z,4.43
2018-05-31T18:06:13.863Z,3.78
2018-05-31T18:08:41.552Z,4.68
2018-05-31T18:11:08.918Z,3.80
2018-05-31T18:13:36.426Z,4.72
2018-05-31T18:16:04.807Z,4.10
2018-05-31T18:18:32.764Z,4.10
2018-05-31T18:21:00.644Z,7.50
2018-05-31T18:23:28.044Z,6.15
2018-05-31T18:25:55.751Z,6.03
2018-05-31T18:28:23.621Z,7.53
2018-05-31T18:30:50.975Z,7.72
2018-05-31T18:33:21.217Z,6.45
2018-05-31T18:35:48.653Z,10.15
2018-05-31T18:38:16.120Z,8.57
2018-05-31T18:40:43.938Z,7.65
2018-05-31T18:43:11.347Z,11.25
2018-05-31T18:45:39.302Z,7.30
2018-05-31T18:48:09.012Z,6.93
2018-05-31T18:50:36.883Z,8.17
2018-05-31T18:53:07.233Z,7.63
2018-05-31T18:55:34.767Z,6.50
2018-05-31T18:58:02.645Z,7.00
2018-05-31T19:00:30.294Z,5.85
2018-05-31T19:02:58.116Z,11.33
2018-05-31T19:05:28.281Z,6.70
2018-05-31T19:07:56.557Z,6.80
2018-05-31T19:10:26.185Z,9.23
2018-05-31T19:13:00.893Z,6.07
2018-05-31T19:15:29.083Z,10.90
2018-05-31T19:17:56.933Z,10.17
2018-05-31T19:20:24.698Z,9.77
2018-05-31T19:22:53.806Z,10.73
2018-05-31T19:25:21.788Z,10.70
2018-05-31T19:27:49.172Z,9.67
2018-05-31T19:30:23.159Z,8.77
2018-05-31T19:32:50.804Z,8.40
2018-05-31T19:35:24.190Z,7.97
2018-05-31T19:37:52.084Z,6.03
2018-05-31T19:40:19.516Z,5.80
2018-05-31T19:42:53.217Z,7.27
2018-05-31T19:45:22.826Z,5.67
2018-05-31T19:47:51.835Z,7.23
2018-05-31T19:50:19.423Z,5.90
2018-05-31T19:52:52.878Z,5.57
2018-05-31T19:55:20.642Z,5.97
2018-05-31T19:57:54.152Z,4.43
2018-05-31T20:00:27.640Z,4.97
2018-05-31T20:03:00.954Z,6.70
2018-05-31T20:05:28.543Z,6.53
2018-05-31T20:07:56.157Z,5.33
2018-05-31T20:10:23.932Z,4.63
2018-05-31T20:12:51.941Z,5.37
2018-05-31T20:15:19.367Z,5.70
2018-05-31T20:17:46.910Z,5.77
2018-05-31T20:20:14.673Z,5.27
2018-05-31T20:22:42.540Z,5.53
2018-05-31T20:25:10.406Z,4.80
2018-05-31T20:27:38.209Z,5.73
2018-05-31T20:30:05.633Z,5.47
2018-05-31T20:32:33.551Z,5.57
2018-05-31T20:35:01.469Z,8.60
2018-05-31T20:37:29.334Z,7.17
2018-05-31T20:39:57.249Z,6.67
2018-05-31T20:42:24.865Z,6.70
2018-05-31T20:44:52.835Z,5.17
2018-05-31T20:47:20.844Z,5.13
2018-05-31T20:49:50.989Z,5.13
2018-05-31T20:52:21.778Z,5.13
2018-05-31T20:54:49.420Z,5.33
2018-05-31T20:57:17.390Z,5.37
2018-05-31T20:59:45.359Z,5.63
2018-05-31T21:02:13.226Z,6.03
2018-05-31T21:04:41.299Z,6.77
2018-05-31T21:07:09.379Z,5.43
2018-05-31T21:09:38.170Z,5.20
2018-05-31T21:12:06.024Z,6.27
2018-05-31T21:14:33.819Z,5.03
2018-05-31T21:17:01.248Z,7.03
2018-05-31T21:19:29.027Z,5.00
2018-05-31T21:21:56.889Z,5.50
2018-05-31T21:24:24.252Z,5.50
2018-05-31T21:26:51.797Z,6.07
2018-05-31T21:29:19.591Z,5.23
2018-05-31T21:31:47.133Z,5.53
2018-05-31T21:34:14.688Z,5.47
2018-05-31T21:36:42.650Z,5.30
2018-05-31T21:39:10.724Z,5.10
2018-05-31T21:41:38.183Z,5.93
2018-05-31T21:44:06.667Z,5.23
2018-05-31T21:46:34.528Z,5.83
2018-05-31T21:49:02.499Z,5.43
2018-05-31T21:51:30.255Z,5.70
2018-05-31T21:53:57.834Z,5.33
2018-05-31T21:56:25.388Z,5.27
2018-05-31T21:58:53.153Z,5.07
2018-05-31T22:01:23.135Z,5.30
2018-05-31T22:03:50.617Z,5.93
2018-05-31T22:06:18.485Z,5.20
2018-05-31T22:08:46.580Z,5.50
2018-05-31T22:11:14.025Z,5.80
2018-05-31T22:13:42.061Z,4.87
2018-05-31T22:16:09.615Z,5.40
2018-05-31T22:18:37.306Z,5.03
2018-05-31T22:21:04.765Z,5.60
2018-05-31T22:23:32.525Z,7.27
2018-05-31T22:26:01.117Z,5.73
2018-05-31T22:28:28.982Z,5.07
2018-05-31T22:30:56.983Z,6.27
2018-05-31T22:33:24.409Z,5.33
2018-05-31T22:35:51.884Z,5.13
2018-05-31T22:38:19.735Z,5.57
2018-05-31T22:40:47.618Z,5.90
2018-05-31T22:43:14.986Z,6.10
2018-05-31T22:45:42.452Z,5.20
2018-05-31T22:48:09.871Z,5.67
2018-05-31T22:50:37.941Z,5.60
2018-05-31T22:53:05.912Z,5.70
2018-05-31T22:55:33.689Z,6.17
2018-05-31T22:58:01.585Z,5.70
2018-05-31T23:00:29.103Z,5.27
2018-05-31T23:02:57.010Z,5.50
2018-05-31T23:05:24.391Z,5.00
2018-05-31T23:07:51.750Z,6.63
2018-05-31T23:10:19.213Z,6.10
2018-05-31T23:12:46.800Z,6.17
2018-05-31T23:15:14.554Z,6.60
2018-05-31T23:17:42.022Z,7.40
2018-05-31T23:20:09.890Z,7.00
2018-05-31T23:22:37.685Z,6.67
2018-05-31T23:25:05.214Z,5.93
2018-05-31T23:27:33.174Z,6.13
2018-05-31T23:30:00.640Z,6.53
2018-05-31T23:32:28.420Z,6.43
2018-05-31T23:34:56.169Z,6.90
2018-05-31T23:37:24.067Z,6.77
2018-05-31T23:39:51.435Z,6.17
2018-05-31T23:42:18.849Z,6.67
2018-05-31T23:44:46.721Z,7.17
2018-05-31T23:47:14.687Z,6.60
2018-05-31T23:49:42.449Z,6.67
2018-05-31T23:52:09.824Z,6.03
2018-05-31T23:54:37.274Z,6.23
2018-05-31T23:57:05.340Z,6.63
2018-05-31T23:59:32.784Z,6.40
